Time;durP1;ratioP1;P1;durP2;ratioP2;P2;SDS_P1;SDS_P2;PMS_P1;PMS_P2;Temp;Humidity;BMP_temperature;BMP_pressure;BME280_temperature;BME280_humidity;BME280_pressure;Samples;Min_cycle;Max_cycle;Signal;HPM_P1;HPM_P2
2022/10/25 00:00:40;;;;;;;24.70;4.22;;;;;;;13.77;100.00;100715.78;6139032;23;20033;-74
2022/10/25 00:03:10;;;;;;;18.80;3.67;;;;;;;13.77;100.00;100705.72;6139028;23;19997;-71
2022/10/25 00:05:36;;;;;;;17.90;3.10;;;;;;;13.91;100.00;100711.41;6165042;23;20005;-73
2022/10/25 00:08:01;;;;;;;26.05;3.75;;;;;;;14.01;100.00;100717.41;6164979;23;20136;-73
2022/10/25 00:10:27;;;;;;;22.50;3.95;;;;;;;13.54;100.00;100721.22;6138891;23;19997;-74
2022/10/25 00:12:52;;;;;;;22.20;3.58;;;;;;;13.64;100.00;100726.41;6138899;23;20002;-74
2022/10/25 00:15:18;;;;;;;27.88;4.55;;;;;;;13.50;100.00;100722.63;6139078;23;20021;-73
2022/10/25 00:17:43;;;;;;;27.17;4.90;;;;;;;13.56;100.00;100724.59;6138763;23;19997;-73
2022/10/25 00:20:10;;;;;;;21.33;4.78;;;;;;;13.47;100.00;100720.25;6138785;23;20108;-74
2022/10/25 00:22:36;;;;;;;16.25;3.95;;;;;;;13.49;100.00;100713.59;6164890;23;20013;-74
2022/10/25 00:25:02;;;;;;;21.75;4.10;;;;;;;13.51;100.00;100721.59;6138338;23;20001;-74
2022/10/25 00:27:28;;;;;;;23.05;5.13;;;;;;;13.66;100.00;100724.34;6138347;23;20005;-74
2022/10/25 00:29:53;;;;;;;22.98;4.90;;;;;;;13.74;100.00;100722.41;6164582;23;20002;-74
2022/10/25 00:32:19;;;;;;;29.65;4.78;;;;;;;13.62;100.00;100718.41;6164623;23;20010;-74
2022/10/25 00:34:44;;;;;;;22.17;3.90;;;;;;;13.69;100.00;100723.97;6138879;23;20080;-74
2022/10/25 00:37:10;;;;;;;17.90;4.20;;;;;;;13.55;100.00;100722.91;6163957;23;20388;-74
2022/10/25 00:39:35;;;;;;;26.52;4.65;;;;;;;13.67;100.00;100721.44;6138947;23;20085;-74
2022/10/25 00:42:01;;;;;;;26.63;4.90;;;;;;;13.46;100.00;100718.56;6165195;23;20001;-74
2022/10/25 00:44:38;;;;;;;21.42;5.10;;;;;;;13.54;100.00;100718.50;6164260;23;20080;-71
2022/10/25 00:47:25;;;;;;;26.40;4.40;;;;;;;13.44;100.00;100720.63;6138274;23;20005;-71
2022/10/25 00:50:04;;;;;;;28.60;5.10;;;;;;;13.41;100.00;100715.53;6138399;23;20009;-72
2022/10/25 00:52:34;;;;;;;28.00;5.40;;;;;;;13.19;100.00;100728.91;6139204;23;20100;-72
2022/10/25 00:55:01;;;;;;;36.15;5.90;;;;;;;13.13;100.00;100718.72;6138634;23;20051;-71
2022/10/25 00:57:33;;;;;;;25.42;4.82;;;;;;;13.03;100.00;100728.97;6137949;23;20081;-72
2022/10/25 00:59:59;;;;;;;;;;;;;;;13.00;100.00;100723.91;6165252;23;19998;-72
2022/10/25 01:02:24;;;;;;;26.73;5.93;;;;;;;13.02;100.00;100721.84;6138622;23;19951;-72
2022/10/25 01:04:51;;;;;;;31.25;5.55;;;;;;;13.04;100.00;100719.81;6164561;23;20005;-73
2022/10/25 01:07:16;;;;;;;22.45;5.57;;;;;;;12.93;100.00;100720.19;6137819;23;20001;-72
2022/10/25 01:09:42;;;;;;;29.65;5.30;;;;;;;12.97;100.00;100729.66;6164694;23;20027;-72
2022/10/25 01:12:07;;;;;;;23.70;5.75;;;;;;;13.08;100.00;100721.13;6137982;23;20056;-71
2022/10/25 01:14:36;;;;;;;35.30;6.15;;;;;;;13.01;100.00;100731.03;6138224;23;20005;-73
2022/10/25 01:17:31;;;;;;;26.75;5.90;;;;;;;13.07;100.00;100729.47;6138220;23;20376;-74
2022/10/25 01:20:15;;;;;;;26.23;5.80;;;;;;;12.91;100.00;100730.38;6138104;23;20006;-74
2022/10/25 01:23:26;;;;;;;29.52;5.80;;;;;;;12.89;100.00;100727.00;6164513;23;20037;-73
2022/10/25 01:26:37;;;;;;;33.58;6.78;;;;;;;13.15;100.00;100724.81;6150441;23;20032;-73
2022/10/25 01:29:18;;;;;;;35.25;6.63;;;;;;;13.08;100.00;100721.13;6097982;23;20006;-73
2022/10/25 01:31:48;;;;;;;30.58;6.28;;;;;;;13.25;100.00;100728.22;6138458;23;20051;-73
2022/10/25 01:34:24;;;;;;;20.92;5.63;;;;;;;13.30;100.00;100725.81;6138158;23;20013;-73
2022/10/25 01:37:09;;;;;;;19.30;5.38;;;;;;;13.33;100.00;100718.31;6138051;23;20093;-73
2022/10/25 01:39:42;;;;;;;23.92;5.32;;;;;;;13.29;100.00;100729.53;6164209;23;20060;-74
2022/10/25 01:42:21;;;;;;;18.75;4.20;;;;;;;13.29;100.00;100728.69;6138423;23;20331;-74
2022/10/25 01:45:18;;;;;;;20.42;5.20;;;;;;;13.52;100.00;100728.72;6138124;23;20009;-73
2022/10/25 01:47:58;;;;;;;25.77;5.25;;;;;;;13.54;100.00;100724.78;6137999;23;20096;-73
2022/10/25 01:50:27;;;;;;;30.48;4.68;;;;;;;13.47;100.00;100736.56;6137848;23;20009;-73
2022/10/25 01:52:53;;;;;;;21.75;5.57;;;;;;;13.60;100.00;100734.09;6163982;23;20009;-74
2022/10/25 01:55:24;;;;;;;21.55;5.03;;;;;;;13.66;100.00;100730.66;6137701;23;20008;-74
2022/10/25 01:58:02;;;;;;;17.35;4.68;;;;;;;13.61;100.00;100727.63;6137695;23;19998;-74
2022/10/25 02:00:33;;;;;;;18.85;5.43;;;;;;;13.69;100.00;100730.28;6137643;23;20001;-74
2022/10/25 02:03:39;;;;;;;27.00;5.93;;;;;;;13.81;100.00;100739.69;6138302;23;19997;-73
2022/10/25 02:06:11;;;;;;;20.58;4.95;;;;;;;13.65;100.00;100731.69;6151624;23;20245;-73
2022/10/25 02:08:52;;;;;;;22.30;5.85;;;;;;;13.63;100.00;100724.72;6163860;23;20002;-73
2022/10/25 02:14:04;;;;;;;29.55;6.38;;;;;;;13.89;100.00;100718.88;6180883;23;19916;-71
2022/10/25 02:16:39;;;;;;;22.77;6.18;;;;;;;14.01;100.00;100733.75;6192312;23;20020;-72
2022/10/25 02:19:06;;;;;;;29.15;6.80;;;;;;;14.04;100.00;100733.41;6189722;23;20011;-72
2022/10/25 02:21:35;;;;;;;41.50;8.10;;;;;;;13.90;100.00;100742.38;6187094;23;20013;-72
2022/10/25 02:24:08;;;;;;;23.85;6.20;;;;;;;13.79;100.00;100741.75;6189929;23;20005;-71
2022/10/25 02:26:35;;;;;;;18.70;6.78;;;;;;;13.75;100.00;100740.41;6190189;23;20092;-72
2022/10/25 02:29:03;;;;;;;36.35;8.02;;;;;;;13.75;100.00;100734.97;6190132;23;20012;-72
2022/10/25 02:31:32;;;;;;;23.60;6.63;;;;;;;13.69;100.00;100738.47;6192504;23;20008;-72
2022/10/25 02:33:58;;;;;;;26.30;6.18;;;;;;;13.84;100.00;100739.34;6191890;23;20005;-72
2022/10/25 02:36:23;;;;;;;22.50;7.13;;;;;;;13.86;100.00;100736.44;6191449;23;20110;-72
2022/10/25 02:38:51;;;;;;;30.98;7.25;;;;;;;13.89;100.00;100735.22;6191704;23;20001;-71
2022/10/25 02:41:17;;;;;;;30.08;6.82;;;;;;;13.82;100.00;100735.97;6190313;23;19993;-72
2022/10/25 02:43:43;;;;;;;33.67;7.70;;;;;;;13.74;100.00;100744.19;6190666;23;20005;-72
2022/10/25 02:46:14;;;;;;;28.75;8.15;;;;;;;13.73;100.00;100742.50;6191672;23;20001;-71
2022/10/25 02:48:40;;;;;;;30.33;8.33;;;;;;;13.88;100.00;100739.81;6190078;23;20004;-74
2022/10/25 02:51:07;;;;;;;38.28;10.00;;;;;;;13.61;100.00;100754.81;6190265;23;19993;-72
2022/10/25 02:53:33;;;;;;;29.60;9.60;;;;;;;13.60;100.00;100742.25;6190677;23;20013;-72
2022/10/25 02:56:05;;;;;;;23.75;10.57;;;;;;;13.72;100.00;100751.69;6190030;23;20008;-72
2022/10/25 02:58:33;;;;;;;31.08;10.65;;;;;;;13.65;100.00;100745.28;6190813;23;20013;-72
2022/10/25 03:00:58;;;;;;;34.20;10.27;;;;;;;13.71;100.00;100752.72;6190021;23;20047;-72
2022/10/25 03:03:25;;;;;;;38.33;9.85;;;;;;;13.73;100.00;100758.81;6189651;23;20454;-73
2022/10/25 03:05:51;;;;;;;32.65;10.45;;;;;;;13.79;100.00;100752.66;6189986;23;20001;-72
2022/10/25 03:08:17;;;;;;;32.75;10.68;;;;;;;13.72;100.00;100757.13;6192389;23;20051;-72
2022/10/25 03:10:42;;;;;;;31.60;10.30;;;;;;;13.73;100.00;100747.94;6192412;23;20001;-72
2022/10/25 03:13:07;;;;;;;29.63;10.25;;;;;;;13.56;100.00;100762.66;6190721;23;20009;-72
2022/10/25 03:15:33;;;;;;;33.95;10.45;;;;;;;13.77;100.00;100760.16;6191414;23;20431;-72
2022/10/25 03:17:58;;;;;;;24.83;10.60;;;;;;;13.65;100.00;100764.31;6190855;23;20071;-72
2022/10/25 03:20:23;;;;;;;32.88;10.30;;;;;;;13.62;100.00;100778.28;6191098;23;20036;-72
2022/10/25 03:22:49;;;;;;;40.10;10.82;;;;;;;13.71;100.00;100763.59;6190693;23;20005;-72
2022/10/25 03:25:14;;;;;;;29.80;10.40;;;;;;;13.67;100.00;100770.41;6191514;23;20005;-72
2022/10/25 03:27:40;;;;;;;24.70;9.80;;;;;;;13.54;100.00;100771.00;6190794;23;20012;-73
2022/10/25 03:30:06;;;;;;;22.92;9.18;;;;;;;13.67;100.00;100792.19;6189586;23;20088;-72
2022/10/25 03:32:31;;;;;;;38.50;11.15;;;;;;;13.50;100.00;100774.31;6189562;23;20347;-72
2022/10/25 03:34:56;;;;;;;26.77;8.63;;;;;;;13.68;100.00;100772.09;6191179;23;20001;-73
2022/10/25 03:37:22;;;;;;;26.08;9.93;;;;;;;13.56;100.00;100779.00;6189807;23;20004;-72
2022/10/25 03:39:47;;;;;;;27.63;10.07;;;;;;;13.64;100.00;100791.72;6191247;23;20001;-75
2022/10/25 03:42:12;;;;;;;26.17;9.88;;;;;;;13.69;100.00;100784.72;6190085;23;20045;-71
2022/10/25 03:44:38;;;;;;;24.88;10.07;;;;;;;13.71;100.00;100792.69;6191273;23;20131;-72
2022/10/25 03:47:03;;;;;;;29.48;9.88;;;;;;;13.70;100.00;100786.41;6188581;23;20001;-73
2022/10/25 03:49:29;;;;;;;31.42;10.65;;;;;;;13.64;100.00;100798.00;6190182;23;20004;-72
2022/10/25 03:51:54;;;;;;;30.70;10.35;;;;;;;13.56;100.00;100788.03;6191572;23;20005;-72
2022/10/25 03:54:19;;;;;;;23.30;10.02;;;;;;;13.85;100.00;100790.03;6190266;23;20380;-72
2022/10/25 03:56:44;;;;;;;22.92;9.73;;;;;;;13.76;100.00;100801.16;6191364;23;20432;-72
2022/10/25 03:59:10;;;;;;;33.22;11.10;;;;;;;13.73;100.00;100802.34;6190826;23;20004;-73
2022/10/25 04:01:35;;;;;;;26.40;9.38;;;;;;;13.85;100.00;100795.47;6190736;23;20001;-73
2022/10/25 04:04:00;;;;;;;22.88;9.82;;;;;;;13.65;100.00;100805.13;6191521;23;20001;-73
2022/10/25 04:06:26;;;;;;;25.02;10.48;;;;;;;13.71;100.00;100798.97;6191384;23;20005;-72
2022/10/25 04:08:51;;;;;;;22.70;9.85;;;;;;;13.78;100.00;100816.28;6191567;23;20084;-73
2022/10/25 04:11:17;;;;;;;32.65;10.77;;;;;;;13.74;100.00;100812.19;6189997;23;20080;-72
2022/10/25 04:13:42;;;;;;;29.67;11.15;;;;;;;13.78;100.00;100805.38;6136376;23;1076381;-72
2022/10/25 04:16:08;;;;;;;24.73;11.85;;;;;;;13.89;100.00;100811.41;6190932;23;20013;-73
2022/10/25 04:18:33;;;;;;;30.15;11.70;;;;;;;13.90;100.00;100807.69;6191422;23;20046;-72
2022/10/25 04:20:59;;;;;;;32.95;11.45;;;;;;;13.94;100.00;100792.66;6191796;23;20001;-72
2022/10/25 04:23:24;;;;;;;36.10;11.20;;;;;;;13.88;100.00;100794.25;6193448;23;20089;-73
2022/10/25 04:25:49;;;;;;;29.23;11.32;;;;;;;13.89;100.00;100801.41;6191241;23;20001;-73
2022/10/25 04:28:15;;;;;;;28.08;11.77;;;;;;;13.80;100.00;100803.31;6191685;23;20013;-72
2022/10/25 04:30:40;;;;;;;26.73;11.45;;;;;;;13.93;100.00;100791.81;6192795;23;20001;-73
2022/10/25 04:33:06;;;;;;;27.98;11.13;;;;;;;13.76;100.00;100796.56;6193060;23;20011;-73
2022/10/25 04:35:31;;;;;;;26.92;11.55;;;;;;;13.87;100.00;100802.59;6191956;23;20080;-73
2022/10/25 04:37:57;;;;;;;30.25;11.70;;;;;;;13.70;100.00;100813.59;6191410;23;20008;-73
2022/10/25 04:40:23;;;;;;;30.95;12.07;;;;;;;13.85;100.00;100817.25;6191189;23;20096;-72
2022/10/25 04:42:48;;;;;;;27.05;11.68;;;;;;;13.75;100.00;100811.16;6193026;23;20033;-73
2022/10/25 04:45:13;;;;;;;32.35;13.05;;;;;;;13.75;100.00;100805.72;6187728;23;20092;-72
2022/10/25 04:47:39;;;;;;;39.13;11.45;;;;;;;13.82;100.00;100809.44;6191765;23;20108;-72
2022/10/25 04:50:05;;;;;;;33.17;12.52;;;;;;;13.79;99.95;100817.97;6192655;23;20005;-72
2022/10/25 04:52:30;;;;;;;35.58;12.73;;;;;;;13.66;100.00;100808.69;6192198;23;20005;-72
2022/10/25 04:54:56;;;;;;;37.90;12.30;;;;;;;13.85;99.65;100811.78;6191665;23;20023;-71
2022/10/25 04:57:22;;;;;;;34.95;11.65;;;;;;;13.99;98.77;100822.91;6191378;23;20012;-72
2022/10/25 04:59:47;;;;;;;32.50;11.68;;;;;;;13.93;99.35;100818.19;6192813;23;20001;-72
2022/10/25 05:02:13;;;;;;;40.67;13.77;;;;;;;13.85;99.07;100821.84;6191060;23;20100;-71
2022/10/25 05:04:39;;;;;;;38.92;12.57;;;;;;;13.91;99.21;100828.44;6193144;23;20079;-73
2022/10/25 05:07:04;;;;;;;29.27;11.45;;;;;;;13.77;99.65;100825.47;6192354;23;20372;-73
2022/10/25 05:09:29;;;;;;;30.63;11.93;;;;;;;13.62;100.00;100821.78;6191120;23;20005;-74
2022/10/25 05:11:55;;;;;;;26.90;11.68;;;;;;;13.62;100.00;100827.25;6192736;23;20008;-72
2022/10/25 05:14:20;;;;;;;25.92;12.38;;;;;;;13.61;100.00;100822.00;6192573;23;20004;-72
2022/10/25 05:16:46;;;;;;;28.20;12.65;;;;;;;13.69;100.00;100822.81;6190548;23;20005;-74
2022/10/25 05:19:11;;;;;;;32.78;13.70;;;;;;;13.65;100.00;100826.91;6192690;23;20001;-73
2022/10/25 05:21:36;;;;;;;34.78;14.00;;;;;;;13.82;99.39;100831.22;6191100;23;20084;-72
2022/10/25 05:24:02;;;;;;;29.77;12.52;;;;;;;13.70;100.00;100824.50;6191297;23;20007;-73
2022/10/25 05:26:29;;;;;;;29.15;11.60;;;;;;;13.60;100.00;100826.59;6192856;23;20081;-73
2022/10/25 05:28:55;;;;;;;26.63;11.43;;;;;;;13.67;99.89;100821.28;6193464;23;20009;-73
2022/10/25 05:31:28;;;;;;;28.40;11.52;;;;;;;13.57;100.00;100818.78;6191180;23;20356;-73
2022/10/25 05:33:56;;;;;;;34.22;12.95;;;;;;;13.54;100.00;100819.13;6191782;23;20004;-73
2022/10/25 05:36:22;;;;;;;43.60;13.27;;;;;;;13.50;100.00;100817.81;6190845;23;20325;-73
2022/10/25 05:38:47;;;;;;;31.15;12.07;;;;;;;13.60;100.00;100823.88;6191319;23;20008;-73
2022/10/25 05:41:15;;;;;;;39.50;12.05;;;;;;;13.60;100.00;100832.03;6192261;23;20001;-73
2022/10/25 05:43:41;;;;;;;37.53;13.20;;;;;;;13.60;100.00;100834.75;6189216;23;20001;-73
2022/10/25 05:46:12;;;;;;;31.38;12.93;;;;;;;13.49;100.00;100829.69;6189752;23;20052;-73
2022/10/25 05:48:37;;;;;;;31.05;12.98;;;;;;;13.72;100.00;100833.31;6191230;23;20006;-73
2022/10/25 05:51:18;;;;;;;32.97;13.50;;;;;;;13.65;100.00;100848.66;6192367;23;20008;-73
2022/10/25 05:53:45;;;;;;;31.42;13.13;;;;;;;13.77;100.00;100841.78;6191726;23;20051;-73
2022/10/25 05:56:12;;;;;;;32.35;12.90;;;;;;;13.66;100.00;100850.34;6190970;23;20128;-73
2022/10/25 05:58:38;;;;;;;33.63;12.43;;;;;;;13.68;100.00;100853.72;6191159;23;20015;-73
2022/10/25 06:01:04;;;;;;;37.72;13.15;;;;;;;13.81;100.00;100858.59;6192409;23;19997;-73
2022/10/25 06:03:29;;;;;;;33.70;12.15;;;;;;;13.81;100.00;100856.72;6192526;23;20059;-73
2022/10/25 06:06:00;;;;;;;36.22;13.02;;;;;;;13.64;100.00;100863.31;6190889;23;20072;-73
2022/10/25 06:08:25;;;;;;;36.45;13.23;;;;;;;13.62;100.00;100864.47;6190690;23;20005;-73
2022/10/25 06:10:50;;;;;;;32.58;12.40;;;;;;;13.66;100.00;100861.25;6189963;23;20501;-72
2022/10/25 06:13:16;;;;;;;26.35;11.95;;;;;;;13.64;100.00;100863.31;6190128;23;20013;-73
2022/10/25 06:15:41;;;;;;;32.05;12.60;;;;;;;13.73;100.00;100878.53;6191993;23;20009;-73
2022/10/25 06:18:06;;;;;;;28.38;12.07;;;;;;;13.69;100.00;100871.78;6190497;23;20005;-73
2022/10/25 06:20:31;;;;;;;34.47;12.90;;;;;;;13.74;100.00;100873.94;6190485;23;20054;-72
2022/10/25 06:22:57;;;;;;;32.88;12.40;;;;;;;13.74;100.00;100874.78;6192299;23;20016;-73
2022/10/25 06:25:22;;;;;;;28.95;12.40;;;;;;;13.71;100.00;100869.72;6190155;23;20024;-73
2022/10/25 06:27:48;;;;;;;42.40;14.27;;;;;;;13.73;100.00;100877.69;6190527;23;20347;-72
2022/10/25 06:30:13;;;;;;;36.72;13.82;;;;;;;13.77;100.00;100882.63;6190697;23;20001;-73
2022/10/25 06:32:38;;;;;;;46.42;15.80;;;;;;;13.78;100.00;100883.47;6191382;23;20455;-71
2022/10/25 06:35:04;;;;;;;40.70;15.82;;;;;;;13.70;100.00;100881.63;6190614;23;20001;-72
2022/10/25 06:37:30;;;;;;;38.60;15.35;;;;;;;13.72;100.00;100893.19;6191735;23;20012;-72
2022/10/25 06:39:55;;;;;;;39.95;15.88;;;;;;;13.62;100.00;100889.81;6191277;23;20005;-71
2022/10/25 06:42:20;;;;;;;43.03;18.48;;;;;;;13.57;100.00;100894.97;6190291;23;20012;-71
2022/10/25 06:44:46;;;;;;;42.78;17.65;;;;;;;13.63;100.00;100894.25;6191929;23;20001;-72
2022/10/25 06:47:11;;;;;;;38.95;17.17;;;;;;;13.56;100.00;100893.25;6189418;23;20009;-71
2022/10/25 06:49:36;;;;;;;47.40;17.70;;;;;;;13.63;100.00;100894.25;6190541;23;20020;-71
2022/10/25 06:52:02;;;;;;;37.67;16.48;;;;;;;13.69;100.00;100904.44;6192118;23;19998;-71
2022/10/25 06:54:27;;;;;;;38.15;17.45;;;;;;;13.77;100.00;100912.53;6192048;23;20008;-70
2022/10/25 06:56:53;;;;;;;36.97;17.35;;;;;;;13.88;100.00;100913.16;6190457;23;20032;-72
2022/10/25 06:59:19;;;;;;;36.20;16.20;;;;;;;13.82;100.00;100915.59;6176234;23;20031;-71
2022/10/25 07:01:45;;;;;;;29.58;16.70;;;;;;;13.95;100.00;100914.13;6174197;23;20591;-73
2022/10/25 07:04:10;;;;;;;28.65;15.82;;;;;;;14.14;100.00;100913.66;6181445;23;20012;-71
2022/10/25 07:06:36;;;;;;;31.83;16.60;;;;;;;13.95;100.00;100923.13;6181945;23;20015;-72
2022/10/25 07:09:03;;;;;;;32.92;17.70;;;;;;;13.89;100.00;100925.72;6182848;23;20008;-72
2022/10/25 07:11:31;;;;;;;35.15;16.95;;;;;;;13.71;100.00;100924.13;6181693;23;20001;-70
2022/10/25 07:13:58;;;;;;;39.33;18.58;;;;;;;13.77;100.00;100928.88;6182430;23;20020;-70
2022/10/25 07:16:25;;;;;;;45.58;19.30;;;;;;;13.88;100.00;100924.03;6183009;23;20064;-70
2022/10/25 07:18:51;;;;;;;43.38;19.65;;;;;;;13.77;100.00;100934.31;6183938;23;19997;-71
2022/10/25 07:21:21;;;;;;;38.05;19.55;;;;;;;13.80;100.00;100939.38;6182481;23;19997;-71
2022/10/25 07:23:48;;;;;;;43.75;20.90;;;;;;;13.79;100.00;100932.25;6184240;23;20001;-70
2022/10/25 07:26:23;;;;;;;38.42;19.33;;;;;;;13.94;100.00;100936.94;6183568;23;20001;-70
2022/10/25 07:28:51;;;;;;;30.70;16.67;;;;;;;14.17;100.00;100945.16;6181876;23;20084;-70
2022/10/25 07:31:23;;;;;;;38.65;19.10;;;;;;;14.16;100.00;100944.31;6182634;23;20024;-71
2022/10/25 07:33:50;;;;;;;48.55;21.45;;;;;;;14.09;100.00;100937.88;6183137;23;20008;-70
2022/10/25 07:36:15;;;;;;;35.15;19.25;;;;;;;14.05;100.00;100942.00;6179576;23;20055;-71
2022/10/25 07:38:41;;;;;;;33.25;19.15;;;;;;;14.24;100.00;100938.81;6163020;23;20008;-72
2022/10/25 07:41:06;;;;;;;36.17;19.52;;;;;;;14.07;100.00;100950.81;6183800;23;20076;-71
2022/10/25 07:43:33;;;;;;;39.47;20.85;;;;;;;13.99;100.00;100959.03;6181279;23;20008;-71
2022/10/25 07:45:58;;;;;;;43.20;19.73;;;;;;;13.97;100.00;100970.09;6182334;23;20000;-70
2022/10/25 07:48:23;;;;;;;37.55;20.30;;;;;;;13.94;100.00;100961.44;6181725;23;20011;-71
2022/10/25 07:50:49;;;;;;;45.80;21.52;;;;;;;14.12;100.00;100953.84;6181169;23;20001;-70
2022/10/25 07:53:15;;;;;;;38.80;21.33;;;;;;;14.26;100.00;100961.25;6185325;23;20001;-70
2022/10/25 07:55:40;;;;;;;34.60;19.88;;;;;;;14.53;100.00;100964.50;6185070;23;20498;-70
2022/10/25 07:58:09;;;;;;;40.35;20.15;;;;;;;14.42;100.00;100975.81;6185531;23;20056;-71
2022/10/25 08:00:35;;;;;;;46.25;20.30;;;;;;;14.54;100.00;100963.47;6184083;23;19997;-70
2022/10/25 08:03:01;;;;;;;33.80;17.23;;;;;;;14.61;100.00;100975.34;6183588;23;20432;-71
2022/10/25 08:05:26;;;;;;;39.75;18.42;;;;;;;14.51;100.00;100969.28;6184705;23;20128;-70
2022/10/25 08:07:52;;;;;;;44.92;21.00;;;;;;;14.42;100.00;100970.34;6183388;23;20060;-70
2022/10/25 08:10:19;;;;;;;33.97;19.52;;;;;;;14.51;100.00;100980.19;6183182;23;19997;-70
2022/10/25 08:12:45;;;;;;;45.13;21.90;;;;;;;14.31;100.00;100986.06;6184487;23;20008;-69
2022/10/25 08:15:10;;;;;;;41.25;20.17;;;;;;;14.42;100.00;100981.25;6183606;23;20029;-70
2022/10/25 08:17:36;;;;;;;43.67;19.95;;;;;;;14.54;100.00;100980.69;6184183;23;20032;-70
2022/10/25 08:20:01;;;;;;;42.42;17.05;;;;;;;14.60;100.00;100981.81;6182634;23;20005;-70
2022/10/25 08:22:26;;;;;;;36.42;19.92;;;;;;;14.50;100.00;101000.28;6182524;23;20498;-70
2022/10/25 08:24:52;;;;;;;40.65;20.00;;;;;;;14.46;100.00;100993.47;6185074;23;20017;-71
2022/10/25 08:27:17;;;;;;;39.13;18.85;;;;;;;14.65;100.00;100993.88;6184359;23;20001;-71
2022/10/25 08:29:43;;;;;;;38.50;19.60;;;;;;;14.26;100.00;100991.22;6185608;23;20099;-72
2022/10/25 08:32:08;;;;;;;41.22;20.02;;;;;;;14.31;100.00;100991.53;6183466;23;20008;-71
2022/10/25 08:34:33;;;;;;;40.10;17.88;;;;;;;14.49;100.00;100998.59;6181803;23;20048;-70
2022/10/25 08:36:59;;;;;;;49.03;21.27;;;;;;;14.34;100.00;101015.69;6184458;23;20084;-70
2022/10/25 08:39:24;;;;;;;38.20;18.48;;;;;;;14.30;100.00;101022.50;6183923;23;20036;-71
2022/10/25 08:41:51;;;;;;;34.78;17.88;;;;;;;14.39;100.00;101010.53;6185467;23;20084;-71
2022/10/25 08:44:44;;;;;;;33.67;17.60;;;;;;;14.54;100.00;101007.06;6184554;23;19997;-71
2022/10/25 08:47:28;;;;;;;33.40;18.85;;;;;;;14.52;100.00;101017.28;6182031;23;20104;-71
2022/10/25 08:50:12;;;;;;;40.97;17.88;;;;;;;14.59;100.00;101031.91;6182768;23;20055;-71
2022/10/25 08:52:48;;;;;;;40.13;17.42;;;;;;;14.63;100.00;101049.59;6184202;23;20016;-70
2022/10/25 08:55:23;;;;;;;36.70;17.38;;;;;;;14.38;100.00;101030.63;6183274;23;19997;-70
2022/10/25 08:57:51;;;;;;;35.63;17.58;;;;;;;14.48;100.00;101025.00;6182702;23;19997;-71
2022/10/25 09:00:20;;;;;;;29.75;16.33;;;;;;;14.40;100.00;101039.47;6185222;23;20001;-71
2022/10/25 09:02:56;;;;;;;39.40;17.13;;;;;;;14.61;100.00;101048.94;6183400;23;20016;-70
2022/10/25 09:05:36;;;;;;;29.42;14.05;;;;;;;14.52;100.00;101048.13;6185007;23;20211;-70
2022/10/25 09:08:41;;;;;;;31.00;13.55;;;;;;;14.52;100.00;101042.66;6183477;23;20024;-70
2022/10/25 09:11:12;;;;;;;35.63;12.63;;;;;;;14.66;100.00;101058.25;6172119;23;20036;-70
2022/10/25 09:13:50;;;;;;;30.05;13.10;;;;;;;14.79;100.00;101049.47;6182658;23;20041;-70
2022/10/25 09:16:23;;;;;;;32.95;13.27;;;;;;;14.86;99.36;101061.34;6182125;23;20015;-70
2022/10/25 09:18:53;;;;;;;29.73;11.63;;;;;;;14.87;99.47;101060.34;6182265;23;20005;-71
2022/10/25 09:21:41;;;;;;;28.17;11.40;;;;;;;15.02;98.85;101054.09;6184433;23;19993;-70
2022/10/25 09:24:32;;;;;;;24.10;11.00;;;;;;;15.08;98.48;101050.63;6183084;23;20061;-70
2022/10/25 09:27:06;;;;;;;30.90;11.18;;;;;;;14.65;99.73;101072.06;6183642;23;20029;-70
2022/10/25 09:29:46;;;;;;;29.95;11.38;;;;;;;14.62;100.00;101054.19;6182445;23;20004;-71
2022/10/25 09:32:20;;;;;;;29.63;11.25;;;;;;;14.74;99.59;101057.38;6183476;23;20700;-70
2022/10/25 09:34:46;;;;;;;26.30;11.38;;;;;;;14.80;99.40;101067.53;6182368;23;20068;-71
2022/10/25 09:37:37;;;;;;;21.67;9.25;;;;;;;15.05;98.93;101064.59;6184305;23;20009;-72
2022/10/25 09:40:10;;;;;;;26.47;9.97;;;;;;;15.10;97.96;101062.19;6183022;23;20009;-71
2022/10/25 09:42:45;;;;;;;35.25;10.15;;;;;;;14.95;98.46;101080.38;6181517;23;20056;-71
2022/10/25 09:45:25;;;;;;;30.73;10.13;;;;;;;14.99;98.38;101070.78;6182185;23;20051;-71
2022/10/25 09:48:15;;;;;;;31.45;10.25;;;;;;;15.10;98.07;101084.00;6184512;23;20092;-69
2022/10/25 09:50:50;;;;;;;29.88;9.45;;;;;;;15.13;97.64;101072.75;6184810;23;19997;-70
2022/10/25 09:53:17;;;;;;;25.65;8.90;;;;;;;15.27;97.39;101080.13;6181066;23;20070;-69
2022/10/25 09:55:42;;;;;;;30.85;9.07;;;;;;;15.32;96.71;101072.25;6181553;23;20066;-70
2022/10/25 09:58:22;;;;;;;31.92;10.02;;;;;;;15.20;96.22;101073.72;6183493;23;20110;-69
2022/10/25 10:00:49;;;;;;;28.45;9.77;;;;;;;15.42;95.59;101078.25;6185074;23;20004;-70
2022/10/25 10:03:15;;;;;;;22.38;7.32;;;;;;;15.21;96.00;101075.41;6182342;23;20091;-71
2022/10/25 10:05:49;;;;;;;20.17;7.20;;;;;;;15.42;94.99;101072.81;6182449;23;20083;-72
2022/10/25 10:08:14;;;;;;;34.55;7.90;;;;;;;15.26;94.60;101083.88;6183921;23;19997;-71
2022/10/25 10:10:40;;;;;;;21.90;6.55;;;;;;;15.48;94.09;101072.06;6184667;23;20040;-70
2022/10/25 10:14:00;;;;;;;22.75;6.97;;;;;;;15.52;94.04;101088.06;6183158;23;20011;-70
2022/10/25 10:16:29;;;;;;;25.90;7.05;;;;;;;15.50;93.46;101103.78;6125482;23;19997;-71
2022/10/25 10:19:19;;;;;;;26.15;6.72;;;;;;;15.46;93.35;101095.97;6170157;23;20011;-70
2022/10/25 10:21:55;;;;;;;31.40;6.55;;;;;;;15.73;92.32;101096.44;6183222;23;19997;-70
2022/10/25 10:24:29;;;;;;;17.85;5.43;;;;;;;15.45;92.82;101094.28;6182920;23;20001;-70
2022/10/25 10:27:01;;;;;;;26.42;7.28;;;;;;;15.43;91.83;101090.88;6181512;23;20025;-71
2022/10/25 10:29:30;;;;;;;18.27;6.05;;;;;;;15.55;92.27;101098.63;6181103;23;20001;-71
2022/10/25 10:31:59;;;;;;;23.67;6.53;;;;;;;15.63;91.93;101101.28;6183127;23;20005;-71
2022/10/25 10:34:49;;;;;;;25.38;6.63;;;;;;;15.70;91.58;101113.16;6183388;23;19996;-71
2022/10/25 10:37:23;;;;;;;17.25;6.38;;;;;;;15.85;91.73;101105.84;6181283;23;20000;-71
2022/10/25 10:40:21;;;;;;;21.67;6.25;;;;;;;15.71;92.35;101109.41;6184032;23;20032;-71
2022/10/25 10:42:47;;;;;;;20.38;6.35;;;;;;;15.69;92.00;101100.56;6182611;23;20001;-70
2022/10/25 10:45:16;;;;;;;27.83;7.07;;;;;;;15.66;92.34;101106.41;6184075;23;20096;-71
2022/10/25 10:47:50;;;;;;;26.13;6.82;;;;;;;15.98;90.82;101106.06;6184789;23;20071;-72
2022/10/25 10:50:21;;;;;;;20.25;6.93;;;;;;;15.73;91.67;101108.19;6185411;23;20108;-71
2022/10/25 10:52:55;;;;;;;;;;;;;;;15.84;91.19;101093.22;6186313;23;20012;-72
2022/10/25 10:55:37;;;;;;;21.90;5.93;;;;;;;16.05;90.71;101091.66;6188670;23;19908;-71
2022/10/25 10:58:15;;;;;;;27.58;5.78;;;;;;;16.06;90.06;101096.06;6188248;23;20012;-72
2022/10/25 11:00:48;;;;;;;18.98;6.28;;;;;;;15.95;89.91;101089.19;6190103;23;20004;-71
2022/10/25 11:03:35;;;;;;;27.83;6.47;;;;;;;16.11;89.04;101107.28;6189627;23;19997;-72
2022/10/25 11:06:01;;;;;;;24.38;6.93;;;;;;;16.18;88.73;101100.03;6183898;23;20040;-72
2022/10/25 11:08:26;;;;;;;17.55;5.63;;;;;;;16.23;88.11;101119.41;6181088;23;20001;-71
2022/10/25 11:11:11;;;;;;;30.48;6.68;;;;;;;16.11;87.87;101104.56;6182286;23;20040;-72
2022/10/25 11:13:37;;;;;;;34.30;6.53;;;;;;;16.12;87.69;101153.53;6184367;23;20084;-72
2022/10/25 11:16:36;;;;;;;14.63;4.93;;;;;;;15.97;88.75;101148.06;6184382;23;20453;-71
2022/10/25 11:19:25;;;;;;;17.83;5.30;;;;;;;16.07;88.49;101130.53;6175294;23;20039;-71
2022/10/25 11:22:01;;;;;;;20.40;4.88;;;;;;;15.85;88.49;101135.91;6184973;23;20035;-71